sensor_id;sensor_type;location;lat;lon;timestamp;P1;durP1;ratioP1;P2;durP2;ratioP2
74328;SDS011;62745;51.060;13.786;2023-02-15T00:00:55;41.03;;;13.77;;
74328;SDS011;62745;51.060;13.786;2023-02-15T00:03:30;34.78;;;13.65;;
74328;SDS011;62745;51.060;13.786;2023-02-15T00:05:56;36.63;;;13.37;;
74328;SDS011;62745;51.060;13.786;2023-02-15T00:08:22;37.97;;;14.55;;
74328;SDS011;62745;51.060;13.786;2023-02-15T00:10:47;36.00;;;13.55;;
74328;SDS011;62745;51.060;13.786;2023-02-15T00:13:13;34.80;;;11.97;;
74328;SDS011;62745;51.060;13.786;2023-02-15T00:15:38;41.20;;;13.27;;
74328;SDS011;62745;51.060;13.786;2023-02-15T00:18:03;34.20;;;13.97;;
74328;SDS011;62745;51.060;13.786;2023-02-15T00:20:28;35.30;;;12.17;;
74328;SDS011;62745;51.060;13.786;2023-02-15T00:22:54;33.87;;;12.27;;
74328;SDS011;62745;51.060;13.786;2023-02-15T00:25:19;33.50;;;12.95;;
74328;SDS011;62745;51.060;13.786;2023-02-15T00:27:44;39.47;;;15.37;;
74328;SDS011;62745;51.060;13.786;2023-02-15T00:30:10;35.23;;;13.70;;
74328;SDS011;62745;51.060;13.786;2023-02-15T00:32:35;31.35;;;13.45;;
74328;SDS011;62745;51.060;13.786;2023-02-15T00:35:01;37.73;;;12.50;;
74328;SDS011;62745;51.060;13.786;2023-02-15T00:37:26;34.55;;;13.68;;
74328;SDS011;62745;51.060;13.786;2023-02-15T00:39:51;37.40;;;14.23;;
74328;SDS011;62745;51.060;13.786;2023-02-15T00:42:17;32.20;;;12.43;;
74328;SDS011;62745;51.060;13.786;2023-02-15T00:44:42;32.63;;;13.30;;
74328;SDS011;62745;51.060;13.786;2023-02-15T00:47:07;39.57;;;14.23;;
74328;SDS011;62745;51.060;13.786;2023-02-15T00:49:32;32.37;;;12.80;;
74328;SDS011;62745;51.060;13.786;2023-02-15T00:51:57;32.60;;;13.33;;
74328;SDS011;62745;51.060;13.786;2023-02-15T00:54:23;32.57;;;13.23;;
74328;SDS011;62745;51.060;13.786;2023-02-15T00:56:48;35.57;;;14.10;;
74328;SDS011;62745;51.060;13.786;2023-02-15T00:59:13;27.63;;;11.23;;
74328;SDS011;62745;51.060;13.786;2023-02-15T01:01:38;31.33;;;10.97;;
74328;SDS011;62745;51.060;13.786;2023-02-15T01:04:04;33.00;;;12.45;;
74328;SDS011;62745;51.060;13.786;2023-02-15T01:06:29;35.38;;;13.55;;
74328;SDS011;62745;51.060;13.786;2023-02-15T01:08:54;34.90;;;12.53;;
74328;SDS011;62745;51.060;13.786;2023-02-15T01:11:21;33.07;;;13.03;;
74328;SDS011;62745;51.060;13.786;2023-02-15T01:13:48;37.25;;;14.35;;
74328;SDS011;62745;51.060;13.786;2023-02-15T01:16:15;37.38;;;14.25;;
74328;SDS011;62745;51.060;13.786;2023-02-15T01:18:40;36.37;;;13.30;;
74328;SDS011;62745;51.060;13.786;2023-02-15T01:21:12;34.37;;;12.50;;
74328;SDS011;62745;51.060;13.786;2023-02-15T01:23:40;34.90;;;12.50;;
74328;SDS011;62745;51.060;13.786;2023-02-15T01:26:06;38.20;;;12.70;;
74328;SDS011;62745;51.060;13.786;2023-02-15T01:28:33;31.95;;;12.13;;
74328;SDS011;62745;51.060;13.786;2023-02-15T01:30:58;37.33;;;14.20;;
74328;SDS011;62745;51.060;13.786;2023-02-15T01:33:24;34.55;;;14.20;;
74328;SDS011;62745;51.060;13.786;2023-02-15T01:35:55;40.25;;;13.50;;
74328;SDS011;62745;51.060;13.786;2023-02-15T01:38:21;37.72;;;12.73;;
74328;SDS011;62745;51.060;13.786;2023-02-15T01:40:46;33.10;;;11.67;;
74328;SDS011;62745;51.060;13.786;2023-02-15T01:43:11;33.30;;;11.67;;
74328;SDS011;62745;51.060;13.786;2023-02-15T01:45:37;34.53;;;12.75;;
74328;SDS011;62745;51.060;13.786;2023-02-15T01:48:05;29.08;;;11.35;;
74328;SDS011;62745;51.060;13.786;2023-02-15T01:50:34;34.42;;;12.65;;
74328;SDS011;62745;51.060;13.786;2023-02-15T01:53:13;30.13;;;11.82;;
74328;SDS011;62745;51.060;13.786;2023-02-15T01:55:45;29.88;;;11.98;;
74328;SDS011;62745;51.060;13.786;2023-02-15T01:58:15;32.53;;;12.10;;
74328;SDS011;62745;51.060;13.786;2023-02-15T02:00:41;29.45;;;10.77;;
74328;SDS011;62745;51.060;13.786;2023-02-15T02:03:08;28.15;;;11.18;;
74328;SDS011;62745;51.060;13.786;2023-02-15T02:05:33;26.05;;;11.30;;
74328;SDS011;62745;51.060;13.786;2023-02-15T02:07:59;26.02;;;10.75;;
74328;SDS011;62745;51.060;13.786;2023-02-15T02:10:26;30.88;;;9.60;;
74328;SDS011;62745;51.060;13.786;2023-02-15T02:12:54;23.42;;;10.05;;
74328;SDS011;62745;51.060;13.786;2023-02-15T02:15:32;25.83;;;10.90;;
74328;SDS011;62745;51.060;13.786;2023-02-15T02:20:59;22.30;;;10.02;;
74328;SDS011;62745;51.060;13.786;2023-02-15T02:26:55;25.25;;;9.80;;
74328;SDS011;62745;51.060;13.786;2023-02-15T02:32:29;36.97;;;13.90;;
74328;SDS011;62745;51.060;13.786;2023-02-15T02:35:22;28.13;;;10.75;;
74328;SDS011;62745;51.060;13.786;2023-02-15T02:38:27;34.40;;;12.38;;
74328;SDS011;62745;51.060;13.786;2023-02-15T02:41:32;32.08;;;10.38;;
74328;SDS011;62745;51.060;13.786;2023-02-15T02:44:25;31.13;;;10.40;;
74328;SDS011;62745;51.060;13.786;2023-02-15T02:47:02;30.67;;;11.40;;
74328;SDS011;62745;51.060;13.786;2023-02-15T02:49:41;31.27;;;11.73;;
74328;SDS011;62745;51.060;13.786;2023-02-15T02:55:06;29.50;;;11.32;;
74328;SDS011;62745;51.060;13.786;2023-02-15T02:57:38;30.48;;;10.68;;
74328;SDS011;62745;51.060;13.786;2023-02-15T03:00:12;35.03;;;12.38;;
74328;SDS011;62745;51.060;13.786;2023-02-15T03:02:40;36.10;;;12.57;;
74328;SDS011;62745;51.060;13.786;2023-02-15T03:05:11;36.90;;;12.75;;
74328;SDS011;62745;51.060;13.786;2023-02-15T03:07:45;34.72;;;12.50;;
74328;SDS011;62745;51.060;13.786;2023-02-15T03:10:15;32.22;;;12.18;;
74328;SDS011;62745;51.060;13.786;2023-02-15T03:12:43;34.20;;;13.18;;
74328;SDS011;62745;51.060;13.786;2023-02-15T03:15:10;31.48;;;11.32;;
74328;SDS011;62745;51.060;13.786;2023-02-15T03:17:41;29.00;;;10.25;;
74328;SDS011;62745;51.060;13.786;2023-02-15T03:20:12;28.02;;;11.52;;
74328;SDS011;62745;51.060;13.786;2023-02-15T03:22:42;30.52;;;12.77;;
74328;SDS011;62745;51.060;13.786;2023-02-15T03:25:17;29.52;;;10.77;;
74328;SDS011;62745;51.060;13.786;2023-02-15T03:27:52;34.03;;;10.90;;
74328;SDS011;62745;51.060;13.786;2023-02-15T03:30:20;32.40;;;12.73;;
74328;SDS011;62745;51.060;13.786;2023-02-15T03:32:48;30.52;;;11.50;;
74328;SDS011;62745;51.060;13.786;2023-02-15T03:35:15;32.47;;;11.48;;
74328;SDS011;62745;51.060;13.786;2023-02-15T03:37:42;33.65;;;11.60;;
74328;SDS011;62745;51.060;13.786;2023-02-15T03:40:23;33.85;;;12.23;;
74328;SDS011;62745;51.060;13.786;2023-02-15T03:46:24;31.65;;;10.70;;
74328;SDS011;62745;51.060;13.786;2023-02-15T03:49:11;32.33;;;11.40;;
74328;SDS011;62745;51.060;13.786;2023-02-15T03:51:42;29.90;;;10.85;;
74328;SDS011;62745;51.060;13.786;2023-02-15T03:57:06;29.80;;;10.90;;
74328;SDS011;62745;51.060;13.786;2023-02-15T03:59:52;29.60;;;11.73;;
74328;SDS011;62745;51.060;13.786;2023-02-15T04:05:31;31.98;;;11.48;;
74328;SDS011;62745;51.060;13.786;2023-02-15T04:07:56;30.43;;;11.13;;
74328;SDS011;62745;51.060;13.786;2023-02-15T04:10:22;30.33;;;11.63;;
74328;SDS011;62745;51.060;13.786;2023-02-15T04:13:05;28.55;;;10.77;;
74328;SDS011;62745;51.060;13.786;2023-02-15T04:15:31;31.30;;;12.07;;
74328;SDS011;62745;51.060;13.786;2023-02-15T04:18:14;34.30;;;11.60;;
74328;SDS011;62745;51.060;13.786;2023-02-15T04:20:43;29.23;;;9.93;;
74328;SDS011;62745;51.060;13.786;2023-02-15T04:23:27;31.75;;;11.18;;
74328;SDS011;62745;51.060;13.786;2023-02-15T04:26:12;32.72;;;9.90;;
74328;SDS011;62745;51.060;13.786;2023-02-15T04:28:37;30.50;;;10.67;;
74328;SDS011;62745;51.060;13.786;2023-02-15T04:31:02;34.27;;;11.40;;
74328;SDS011;62745;51.060;13.786;2023-02-15T04:33:27;28.87;;;9.83;;
74328;SDS011;62745;51.060;13.786;2023-02-15T04:35:53;30.07;;;9.70;;
74328;SDS011;62745;51.060;13.786;2023-02-15T04:38:18;31.97;;;10.73;;
74328;SDS011;62745;51.060;13.786;2023-02-15T04:40:43;29.83;;;10.23;;
74328;SDS011;62745;51.060;13.786;2023-02-15T04:43:08;34.60;;;11.73;;
74328;SDS011;62745;51.060;13.786;2023-02-15T04:45:34;34.38;;;10.75;;
74328;SDS011;62745;51.060;13.786;2023-02-15T04:48:08;27.37;;;11.23;;
74328;SDS011;62745;51.060;13.786;2023-02-15T04:50:33;29.77;;;11.88;;
74328;SDS011;62745;51.060;13.786;2023-02-15T04:52:58;30.17;;;10.50;;
74328;SDS011;62745;51.060;13.786;2023-02-15T04:55:24;29.80;;;9.70;;
74328;SDS011;62745;51.060;13.786;2023-02-15T04:57:49;31.30;;;11.27;;
74328;SDS011;62745;51.060;13.786;2023-02-15T05:00:14;30.73;;;10.77;;
74328;SDS011;62745;51.060;13.786;2023-02-15T05:02:39;31.40;;;11.57;;
74328;SDS011;62745;51.060;13.786;2023-02-15T05:05:05;28.83;;;9.87;;
74328;SDS011;62745;51.060;13.786;2023-02-15T05:07:30;33.72;;;10.50;;
74328;SDS011;62745;51.060;13.786;2023-02-15T05:09:55;27.47;;;9.07;;
74328;SDS011;62745;51.060;13.786;2023-02-15T05:12:21;29.93;;;10.27;;
74328;SDS011;62745;51.060;13.786;2023-02-15T05:14:46;30.00;;;10.77;;
74328;SDS011;62745;51.060;13.786;2023-02-15T05:17:11;28.77;;;10.03;;
74328;SDS011;62745;51.060;13.786;2023-02-15T05:19:36;28.97;;;9.87;;
74328;SDS011;62745;51.060;13.786;2023-02-15T05:22:02;28.43;;;9.77;;
74328;SDS011;62745;51.060;13.786;2023-02-15T05:24:27;27.20;;;9.80;;
74328;SDS011;62745;51.060;13.786;2023-02-15T05:27:12;28.92;;;10.10;;
74328;SDS011;62745;51.060;13.786;2023-02-15T05:29:56;28.52;;;10.35;;
74328;SDS011;62745;51.060;13.786;2023-02-15T05:32:21;25.73;;;11.37;;
74328;SDS011;62745;51.060;13.786;2023-02-15T05:34:46;24.80;;;9.20;;
74328;SDS011;62745;51.060;13.786;2023-02-15T05:37:11;25.07;;;10.33;;
74328;SDS011;62745;51.060;13.786;2023-02-15T05:39:37;30.77;;;9.80;;
74328;SDS011;62745;51.060;13.786;2023-02-15T05:42:03;27.17;;;9.30;;
74328;SDS011;62745;51.060;13.786;2023-02-15T05:44:28;29.17;;;10.18;;
74328;SDS011;62745;51.060;13.786;2023-02-15T05:46:54;32.90;;;11.75;;
74328;SDS011;62745;51.060;13.786;2023-02-15T05:49:19;27.40;;;9.23;;
74328;SDS011;62745;51.060;13.786;2023-02-15T05:51:45;23.37;;;9.43;;
74328;SDS011;62745;51.060;13.786;2023-02-15T05:54:10;26.87;;;9.57;;
74328;SDS011;62745;51.060;13.786;2023-02-15T05:56:35;27.20;;;9.67;;
74328;SDS011;62745;51.060;13.786;2023-02-15T05:59:00;32.53;;;11.00;;
74328;SDS011;62745;51.060;13.786;2023-02-15T06:01:26;23.60;;;9.77;;
74328;SDS011;62745;51.060;13.786;2023-02-15T06:03:51;26.60;;;11.47;;
74328;SDS011;62745;51.060;13.786;2023-02-15T06:06:17;25.10;;;9.18;;
74328;SDS011;62745;51.060;13.786;2023-02-15T06:08:42;22.88;;;8.50;;
74328;SDS011;62745;51.060;13.786;2023-02-15T06:11:08;24.70;;;9.38;;
74328;SDS011;62745;51.060;13.786;2023-02-15T06:13:33;22.80;;;9.27;;
74328;SDS011;62745;51.060;13.786;2023-02-15T06:16:00;28.75;;;10.75;;
74328;SDS011;62745;51.060;13.786;2023-02-15T06:18:25;42.67;;;11.83;;
74328;SDS011;62745;51.060;13.786;2023-02-15T06:20:50;43.25;;;12.15;;
74328;SDS011;62745;51.060;13.786;2023-02-15T06:23:16;40.75;;;11.73;;
74328;SDS011;62745;51.060;13.786;2023-02-15T06:25:42;28.13;;;10.27;;
74328;SDS011;62745;51.060;13.786;2023-02-15T06:28:07;21.52;;;9.60;;
74328;SDS011;62745;51.060;13.786;2023-02-15T06:30:32;19.03;;;8.83;;
74328;SDS011;62745;51.060;13.786;2023-02-15T06:32:58;19.00;;;7.50;;
74328;SDS011;62745;51.060;13.786;2023-02-15T06:35:23;18.77;;;8.13;;
74328;SDS011;62745;51.060;13.786;2023-02-15T06:37:48;17.88;;;7.97;;
74328;SDS011;62745;51.060;13.786;2023-02-15T06:40:14;15.82;;;7.00;;
74328;SDS011;62745;51.060;13.786;2023-02-15T06:42:40;16.10;;;7.00;;
74328;SDS011;62745;51.060;13.786;2023-02-15T06:45:06;16.60;;;6.70;;
74328;SDS011;62745;51.060;13.786;2023-02-15T06:47:32;17.92;;;7.53;;
74328;SDS011;62745;51.060;13.786;2023-02-15T06:49:57;16.73;;;7.40;;
74328;SDS011;62745;51.060;13.786;2023-02-15T06:52:23;14.80;;;7.23;;
74328;SDS011;62745;51.060;13.786;2023-02-15T06:54:48;19.98;;;6.88;;
74328;SDS011;62745;51.060;13.786;2023-02-15T06:57:14;15.67;;;7.17;;
74328;SDS011;62745;51.060;13.786;2023-02-15T06:59:39;15.88;;;8.05;;
74328;SDS011;62745;51.060;13.786;2023-02-15T07:02:05;16.27;;;7.70;;
74328;SDS011;62745;51.060;13.786;2023-02-15T07:04:30;20.23;;;8.00;;
74328;SDS011;62745;51.060;13.786;2023-02-15T07:06:56;17.90;;;8.77;;
74328;SDS011;62745;51.060;13.786;2023-02-15T07:09:21;19.10;;;7.90;;
74328;SDS011;62745;51.060;13.786;2023-02-15T07:11:47;19.23;;;8.00;;
74328;SDS011;62745;51.060;13.786;2023-02-15T07:14:31;18.67;;;7.90;;
74328;SDS011;62745;51.060;13.786;2023-02-15T07:16:56;21.15;;;8.20;;
74328;SDS011;62745;51.060;13.786;2023-02-15T07:19:22;18.57;;;7.80;;
74328;SDS011;62745;51.060;13.786;2023-02-15T07:21:47;20.33;;;8.13;;
74328;SDS011;62745;51.060;13.786;2023-02-15T07:24:13;18.73;;;7.70;;
74328;SDS011;62745;51.060;13.786;2023-02-15T07:26:39;19.13;;;8.07;;
74328;SDS011;62745;51.060;13.786;2023-02-15T07:29:04;13.27;;;6.80;;
74328;SDS011;62745;51.060;13.786;2023-02-15T07:31:29;17.23;;;6.90;;
74328;SDS011;62745;51.060;13.786;2023-02-15T07:33:54;16.20;;;6.83;;
74328;SDS011;62745;51.060;13.786;2023-02-15T07:36:19;21.27;;;7.13;;
74328;SDS011;62745;51.060;13.786;2023-02-15T07:38:45;18.37;;;6.73;;
74328;SDS011;62745;51.060;13.786;2023-02-15T07:41:11;16.52;;;6.68;;
74328;SDS011;62745;51.060;13.786;2023-02-15T07:43:39;19.65;;;8.23;;
74328;SDS011;62745;51.060;13.786;2023-02-15T07:46:07;23.20;;;8.75;;
74328;SDS011;62745;51.060;13.786;2023-02-15T07:48:37;16.58;;;6.20;;
74328;SDS011;62745;51.060;13.786;2023-02-15T07:51:04;17.58;;;7.38;;
74328;SDS011;62745;51.060;13.786;2023-02-15T07:53:31;15.73;;;5.95;;
74328;SDS011;62745;51.060;13.786;2023-02-15T07:56:01;16.88;;;7.30;;
74328;SDS011;62745;51.060;13.786;2023-02-15T07:58:27;16.05;;;6.80;;
74328;SDS011;62745;51.060;13.786;2023-02-15T08:01:11;14.48;;;6.20;;
74328;SDS011;62745;51.060;13.786;2023-02-15T08:03:37;17.33;;;6.97;;
74328;SDS011;62745;51.060;13.786;2023-02-15T08:06:02;15.20;;;6.40;;
74328;SDS011;62745;51.060;13.786;2023-02-15T08:08:27;13.95;;;6.70;;
74328;SDS011;62745;51.060;13.786;2023-02-15T08:13:51;13.73;;;6.20;;
74328;SDS011;62745;51.060;13.786;2023-02-15T08:16:22;16.90;;;6.68;;
74328;SDS011;62745;51.060;13.786;2023-02-15T08:18:58;13.43;;;5.57;;
74328;SDS011;62745;51.060;13.786;2023-02-15T08:21:26;14.63;;;6.07;;
74328;SDS011;62745;51.060;13.786;2023-02-15T08:23:52;15.98;;;6.35;;
74328;SDS011;62745;51.060;13.786;2023-02-15T08:26:18;15.48;;;6.53;;
74328;SDS011;62745;51.060;13.786;2023-02-15T08:28:44;15.93;;;6.15;;
74328;SDS011;62745;51.060;13.786;2023-02-15T08:31:11;13.63;;;5.97;;
74328;SDS011;62745;51.060;13.786;2023-02-15T08:33:38;13.65;;;6.35;;
74328;SDS011;62745;51.060;13.786;2023-02-15T08:36:09;14.30;;;5.90;;
74328;SDS011;62745;51.060;13.786;2023-02-15T08:38:38;14.93;;;6.20;;
74328;SDS011;62745;51.060;13.786;2023-02-15T08:41:15;16.25;;;6.25;;
74328;SDS011;62745;51.060;13.786;2023-02-15T08:43:49;13.13;;;5.18;;
74328;SDS011;62745;51.060;13.786;2023-02-15T08:46:16;13.23;;;6.40;;
74328;SDS011;62745;51.060;13.786;2023-02-15T08:48:42;12.95;;;5.40;;
74328;SDS011;62745;51.060;13.786;2023-02-15T08:51:09;12.07;;;6.00;;
74328;SDS011;62745;51.060;13.786;2023-02-15T08:53:37;11.35;;;5.30;;
74328;SDS011;62745;51.060;13.786;2023-02-15T08:56:07;14.48;;;5.68;;
74328;SDS011;62745;51.060;13.786;2023-02-15T08:58:33;12.82;;;5.20;;
74328;SDS011;62745;51.060;13.786;2023-02-15T09:00:59;12.93;;;6.03;;
74328;SDS011;62745;51.060;13.786;2023-02-15T09:03:27;9.25;;;4.72;;
74328;SDS011;62745;51.060;13.786;2023-02-15T09:05:56;13.15;;;6.22;;
74328;SDS011;62745;51.060;13.786;2023-02-15T09:08:22;14.82;;;5.35;;
74328;SDS011;62745;51.060;13.786;2023-02-15T09:10:47;13.10;;;5.30;;
74328;SDS011;62745;51.060;13.786;2023-02-15T09:13:12;12.67;;;5.33;;
74328;SDS011;62745;51.060;13.786;2023-02-15T09:15:38;11.95;;;5.85;;
74328;SDS011;62745;51.060;13.786;2023-02-15T09:18:03;11.57;;;5.47;;
74328;SDS011;62745;51.060;13.786;2023-02-15T09:20:35;16.15;;;6.20;;
74328;SDS011;62745;51.060;13.786;2023-02-15T09:23:01;11.43;;;5.07;;
74328;SDS011;62745;51.060;13.786;2023-02-15T09:25:26;12.40;;;5.87;;
74328;SDS011;62745;51.060;13.786;2023-02-15T09:27:51;12.95;;;6.03;;
74328;SDS011;62745;51.060;13.786;2023-02-15T09:30:17;13.63;;;6.03;;
74328;SDS011;62745;51.060;13.786;2023-02-15T09:32:42;18.10;;;6.53;;
74328;SDS011;62745;51.060;13.786;2023-02-15T09:35:08;13.30;;;5.55;;
74328;SDS011;62745;51.060;13.786;2023-02-15T09:37:33;14.00;;;5.97;;
74328;SDS011;62745;51.060;13.786;2023-02-15T09:39:58;12.83;;;5.97;;
74328;SDS011;62745;51.060;13.786;2023-02-15T09:45:12;12.43;;;6.10;;
74328;SDS011;62745;51.060;13.786;2023-02-15T09:50:43;15.85;;;5.53;;
74328;SDS011;62745;51.060;13.786;2023-02-15T09:53:36;15.30;;;6.93;;
74328;SDS011;62745;51.060;13.786;2023-02-15T10:01:48;12.68;;;6.38;;
74328;SDS011;62745;51.060;13.786;2023-02-15T10:18:30;17.17;;;8.07;;
74328;SDS011;62745;51.060;13.786;2023-02-15T10:26:43;16.33;;;7.35;;
74328;SDS011;62745;51.060;13.786;2023-02-15T10:29:21;16.00;;;7.68;;
74328;SDS011;62745;51.060;13.786;2023-02-15T10:37:09;15.45;;;7.22;;
74328;SDS011;62745;51.060;13.786;2023-02-15T10:42:55;15.80;;;7.30;;
74328;SDS011;62745;51.060;13.786;2023-02-15T10:48:25;14.23;;;6.03;;
74328;SDS011;62745;51.060;13.786;2023-02-15T10:51:02;15.60;;;7.60;;
74328;SDS011;62745;51.060;13.786;2023-02-15T10:56:31;17.77;;;7.78;;
74328;SDS011;62745;51.060;13.786;2023-02-15T11:01:48;18.20;;;7.30;;
74328;SDS011;62745;51.060;13.786;2023-02-15T11:07:06;17.15;;;7.65;;
74328;SDS011;62745;51.060;13.786;2023-02-15T11:09:42;15.75;;;7.25;;
74328;SDS011;62745;51.060;13.786;2023-02-15T11:12:13;16.98;;;6.70;;
74328;SDS011;62745;51.060;13.786;2023-02-15T11:14:46;14.98;;;7.90;;
74328;SDS011;62745;51.060;13.786;2023-02-15T11:17:15;15.25;;;7.40;;
74328;SDS011;62745;51.060;13.786;2023-02-15T11:19:53;14.60;;;6.75;;
74328;SDS011;62745;51.060;13.786;2023-02-15T11:22:25;13.60;;;6.53;;
74328;SDS011;62745;51.060;13.786;2023-02-15T11:24:50;13.63;;;6.50;;
74328;SDS011;62745;51.060;13.786;2023-02-15T11:32:34;16.48;;;7.13;;
74328;SDS011;62745;51.060;13.786;2023-02-15T11:37:40;16.05;;;6.90;;
74328;SDS011;62745;51.060;13.786;2023-02-15T11:42:45;15.90;;;7.78;;
74328;SDS011;62745;51.060;13.786;2023-02-15T11:45:28;13.63;;;6.88;;
74328;SDS011;62745;51.060;13.786;2023-02-15T11:47:56;14.73;;;7.68;;
74328;SDS011;62745;51.060;13.786;2023-02-15T11:50:23;15.85;;;7.20;;
74328;SDS011;62745;51.060;13.786;2023-02-15T11:52:50;13.70;;;6.43;;
74328;SDS011;62745;51.060;13.786;2023-02-15T11:55:19;16.10;;;6.70;;
74328;SDS011;62745;51.060;13.786;2023-02-15T11:57:54;15.05;;;6.97;;
74328;SDS011;62745;51.060;13.786;2023-02-15T12:00:32;14.48;;;7.68;;
74328;SDS011;62745;51.060;13.786;2023-02-15T12:03:02;16.30;;;7.68;;
74328;SDS011;62745;51.060;13.786;2023-02-15T12:05:34;16.42;;;7.63;;
74328;SDS011;62745;51.060;13.786;2023-02-15T12:08:08;16.05;;;7.68;;
74328;SDS011;62745;51.060;13.786;2023-02-15T12:10:46;14.27;;;7.20;;
74328;SDS011;62745;51.060;13.786;2023-02-15T12:13:21;13.75;;;6.55;;
74328;SDS011;62745;51.060;13.786;2023-02-15T12:15:47;14.50;;;6.80;;
74328;SDS011;62745;51.060;13.786;2023-02-15T12:21:02;16.35;;;7.35;;
74328;SDS011;62745;51.060;13.786;2023-02-15T12:23:33;15.85;;;8.00;;
74328;SDS011;62745;51.060;13.786;2023-02-15T12:26:04;14.27;;;6.30;;
74328;SDS011;62745;51.060;13.786;2023-02-15T12:28:31;15.98;;;7.45;;
74328;SDS011;62745;51.060;13.786;2023-02-15T12:30:59;15.57;;;7.20;;
74328;SDS011;62745;51.060;13.786;2023-02-15T12:33:31;14.48;;;7.50;;
74328;SDS011;62745;51.060;13.786;2023-02-15T12:36:21;15.05;;;6.85;;
74328;SDS011;62745;51.060;13.786;2023-02-15T12:44:22;12.60;;;6.10;;
74328;SDS011;62745;51.060;13.786;2023-02-15T12:53:02;16.55;;;6.88;;
74328;SDS011;62745;51.060;13.786;2023-02-15T12:55:32;16.00;;;7.20;;
74328;SDS011;62745;51.060;13.786;2023-02-15T12:58:07;15.00;;;8.05;;
74328;SDS011;62745;51.060;13.786;2023-02-15T13:00:43;14.32;;;7.32;;
74328;SDS011;62745;51.060;13.786;2023-02-15T13:03:15;13.85;;;7.60;;
74328;SDS011;62745;51.060;13.786;2023-02-15T13:05:44;13.75;;;7.30;;
74328;SDS011;62745;51.060;13.786;2023-02-15T13:08:27;15.18;;;7.63;;
74328;SDS011;62745;51.060;13.786;2023-02-15T13:11:10;17.42;;;7.88;;
74328;SDS011;62745;51.060;13.786;2023-02-15T13:13:50;16.63;;;7.82;;
74328;SDS011;62745;51.060;13.786;2023-02-15T13:16:19;14.63;;;6.95;;
74328;SDS011;62745;51.060;13.786;2023-02-15T13:18:50;15.40;;;8.30;;
74328;SDS011;62745;51.060;13.786;2023-02-15T13:21:20;13.57;;;7.28;;
74328;SDS011;62745;51.060;13.786;2023-02-15T13:23:51;12.70;;;7.18;;
74328;SDS011;62745;51.060;13.786;2023-02-15T13:26:21;16.70;;;8.82;;
74328;SDS011;62745;51.060;13.786;2023-02-15T13:28:49;15.07;;;7.38;;
74328;SDS011;62745;51.060;13.786;2023-02-15T13:31:18;13.88;;;7.85;;
74328;SDS011;62745;51.060;13.786;2023-02-15T13:33:53;16.10;;;8.52;;
74328;SDS011;62745;51.060;13.786;2023-02-15T13:36:34;14.57;;;7.82;;
74328;SDS011;62745;51.060;13.786;2023-02-15T13:39:20;14.55;;;7.57;;
74328;SDS011;62745;51.060;13.786;2023-02-15T13:47:40;17.38;;;9.07;;
74328;SDS011;62745;51.060;13.786;2023-02-15T13:52:58;16.58;;;7.85;;
74328;SDS011;62745;51.060;13.786;2023-02-15T13:55:44;15.70;;;8.38;;
74328;SDS011;62745;51.060;13.786;2023-02-15T13:58:25;15.25;;;7.95;;
74328;SDS011;62745;51.060;13.786;2023-02-15T14:01:17;17.75;;;10.38;;
74328;SDS011;62745;51.060;13.786;2023-02-15T14:04:02;15.25;;;8.48;;
74328;SDS011;62745;51.060;13.786;2023-02-15T14:06:49;15.40;;;8.23;;
74328;SDS011;62745;51.060;13.786;2023-02-15T14:15:07;16.25;;;8.80;;
74328;SDS011;62745;51.060;13.786;2023-02-15T14:17:50;15.63;;;8.02;;
74328;SDS011;62745;51.060;13.786;2023-02-15T14:25:54;18.10;;;9.00;;
74328;SDS011;62745;51.060;13.786;2023-02-15T14:28:33;17.48;;;8.80;;
74328;SDS011;62745;51.060;13.786;2023-02-15T14:31:16;19.13;;;8.65;;
74328;SDS011;62745;51.060;13.786;2023-02-15T14:33:53;17.55;;;9.05;;
74328;SDS011;62745;51.060;13.786;2023-02-15T14:36:21;18.48;;;9.35;;
74328;SDS011;62745;51.060;13.786;2023-02-15T14:42:30;19.35;;;10.40;;
74328;SDS011;62745;51.060;13.786;2023-02-15T14:45:22;20.40;;;9.65;;
74328;SDS011;62745;51.060;13.786;2023-02-15T14:48:16;18.33;;;9.32;;
74328;SDS011;62745;51.060;13.786;2023-02-15T14:50:43;21.98;;;9.55;;
74328;SDS011;62745;51.060;13.786;2023-02-15T14:55:42;20.40;;;10.63;;
74328;SDS011;62745;51.060;13.786;2023-02-15T14:58:11;21.23;;;10.50;;
74328;SDS011;62745;51.060;13.786;2023-02-15T15:00:38;21.55;;;9.85;;
74328;SDS011;62745;51.060;13.786;2023-02-15T15:03:10;22.85;;;11.73;;
74328;SDS011;62745;51.060;13.786;2023-02-15T15:05:48;25.40;;;10.60;;
74328;SDS011;62745;51.060;13.786;2023-02-15T15:08:25;25.77;;;11.38;;
74328;SDS011;62745;51.060;13.786;2023-02-15T15:10:57;25.33;;;11.02;;
74328;SDS011;62745;51.060;13.786;2023-02-15T15:13:55;22.33;;;11.07;;
74328;SDS011;62745;51.060;13.786;2023-02-15T15:16:29;23.45;;;10.65;;
74328;SDS011;62745;51.060;13.786;2023-02-15T15:18:55;20.98;;;9.77;;
74328;SDS011;62745;51.060;13.786;2023-02-15T15:32:38;23.23;;;10.25;;
74328;SDS011;62745;51.060;13.786;2023-02-15T15:35:44;23.15;;;10.18;;
74328;SDS011;62745;51.060;13.786;2023-02-15T15:38:38;25.33;;;10.80;;
74328;SDS011;62745;51.060;13.786;2023-02-15T15:41:32;27.20;;;10.75;;
74328;SDS011;62745;51.060;13.786;2023-02-15T15:44:42;24.42;;;11.82;;
74328;SDS011;62745;51.060;13.786;2023-02-15T15:50:18;23.02;;;11.05;;
74328;SDS011;62745;51.060;13.786;2023-02-15T15:52:46;25.10;;;10.98;;
74328;SDS011;62745;51.060;13.786;2023-02-15T15:55:15;21.08;;;10.30;;
74328;SDS011;62745;51.060;13.786;2023-02-15T15:57:44;23.50;;;10.43;;
74328;SDS011;62745;51.060;13.786;2023-02-15T16:00:25;24.38;;;11.75;;
74328;SDS011;62745;51.060;13.786;2023-02-15T16:03:12;23.15;;;10.77;;
74328;SDS011;62745;51.060;13.786;2023-02-15T16:05:40;22.10;;;9.85;;
74328;SDS011;62745;51.060;13.786;2023-02-15T16:08:05;24.60;;;12.13;;
74328;SDS011;62745;51.060;13.786;2023-02-15T16:10:30;23.20;;;10.98;;
74328;SDS011;62745;51.060;13.786;2023-02-15T16:12:58;23.42;;;10.55;;
74328;SDS011;62745;51.060;13.786;2023-02-15T16:15:25;24.77;;;11.20;;
74328;SDS011;62745;51.060;13.786;2023-02-15T16:17:58;23.92;;;10.65;;
74328;SDS011;62745;51.060;13.786;2023-02-15T16:22:55;22.67;;;10.03;;
74328;SDS011;62745;51.060;13.786;2023-02-15T16:25:47;23.52;;;10.40;;
74328;SDS011;62745;51.060;13.786;2023-02-15T16:28:25;26.67;;;11.27;;
74328;SDS011;62745;51.060;13.786;2023-02-15T16:30:54;25.20;;;10.43;;
74328;SDS011;62745;51.060;13.786;2023-02-15T16:33:36;27.08;;;11.27;;
74328;SDS011;62745;51.060;13.786;2023-02-15T16:36:03;24.75;;;10.93;;
74328;SDS011;62745;51.060;13.786;2023-02-15T16:41:06;27.50;;;10.73;;
74328;SDS011;62745;51.060;13.786;2023-02-15T16:43:32;25.33;;;10.95;;
74328;SDS011;62745;51.060;13.786;2023-02-15T16:46:02;26.55;;;11.68;;
74328;SDS011;62745;51.060;13.786;2023-02-15T16:48:29;24.17;;;9.40;;
74328;SDS011;62745;51.060;13.786;2023-02-15T16:50:56;25.98;;;11.13;;
74328;SDS011;62745;51.060;13.786;2023-02-15T16:53:24;27.27;;;11.93;;
74328;SDS011;62745;51.060;13.786;2023-02-15T16:58:23;23.60;;;9.70;;
74328;SDS011;62745;51.060;13.786;2023-02-15T17:00:59;24.38;;;10.82;;
74328;SDS011;62745;51.060;13.786;2023-02-15T17:03:27;24.73;;;10.35;;